createdAt,value
2022-12-15T00:02:10.509Z,2.88
2022-12-15T00:04:55.569Z,2.72
2022-12-15T00:07:40.367Z,2.55
2022-12-15T00:10:25.677Z,2.42
2022-12-15T00:13:11.180Z,2.33
2022-12-15T00:15:56.570Z,2.58
2022-12-15T00:18:41.852Z,2.33
2022-12-15T00:21:27.009Z,2.50
2022-12-15T00:24:12.254Z,2.95
2022-12-15T00:26:57.253Z,2.63
2022-12-15T00:29:42.498Z,3.15
2022-12-15T00:32:27.634Z,3.13
2022-12-15T00:35:12.954Z,2.90
2022-12-15T00:37:57.798Z,3.53
2022-12-15T00:40:24.364Z,2.95
2022-12-15T00:42:50.941Z,3.00
2022-12-15T00:45:17.513Z,3.80
2022-12-15T00:47:44.097Z,3.50
2022-12-15T00:50:28.796Z,3.60
2022-12-15T00:53:13.639Z,3.05
2022-12-15T00:55:58.938Z,4.10
2022-12-15T00:58:43.878Z,3.58
2022-12-15T01:01:29.274Z,4.20
2022-12-15T01:04:14.474Z,5.22
2022-12-15T01:06:59.690Z,6.07
2022-12-15T01:09:45.143Z,7.10
2022-12-15T01:12:30.506Z,7.63
2022-12-15T01:15:15.438Z,8.32
2022-12-15T01:18:00.823Z,7.32
2022-12-15T01:20:27.459Z,6.90
2022-12-15T01:22:55.357Z,8.05
2022-12-15T01:25:24.271Z,8.85
2022-12-15T01:27:51.349Z,8.25
2022-12-15T01:30:20.874Z,9.90
2022-12-15T01:32:47.664Z,8.35
2022-12-15T01:35:14.673Z,9.02
2022-12-15T01:37:41.477Z,8.70
2022-12-15T01:40:27.369Z,8.82
2022-12-15T01:42:53.969Z,8.52
2022-12-15T01:45:29.369Z,8.90
2022-12-15T01:48:06.023Z,8.52
2022-12-15T01:50:39.521Z,10.15
2022-12-15T01:53:06.251Z,10.15
2022-12-15T01:55:33.040Z,9.35
2022-12-15T01:58:06.878Z,8.25
2022-12-15T02:00:34.360Z,8.90
2022-12-15T02:03:02.732Z,8.50
2022-12-15T02:05:31.808Z,8.60
2022-12-15T02:08:00.010Z,9.75
2022-12-15T02:10:34.961Z,10.77
2022-12-15T02:13:04.513Z,9.25
2022-12-15T02:15:43.189Z,11.70
2022-12-15T02:18:12.666Z,13.43
2022-12-15T02:21:03.287Z,13.18
2022-12-15T02:24:03.716Z,12.70
2022-12-15T02:27:01.090Z,11.82
2022-12-15T02:29:36.864Z,12.50
2022-12-15T02:32:50.262Z,13.52
2022-12-15T02:35:42.674Z,13.32
2022-12-15T02:38:09.741Z,12.95
2022-12-15T02:40:37.519Z,11.95
2022-12-15T02:43:06.618Z,13.50
2022-12-15T02:45:49.969Z,11.68
2022-12-15T02:51:15.742Z,11.82
2022-12-15T02:54:22.033Z,13.10
2022-12-15T02:57:03.956Z,10.57
2022-12-15T02:59:36.682Z,10.30
2022-12-15T03:02:06.501Z,13.38
2022-12-15T03:04:37.259Z,12.15
2022-12-15T03:07:09.895Z,12.88
2022-12-15T03:09:36.681Z,11.25
2022-12-15T03:12:03.487Z,12.23
2022-12-15T03:14:30.065Z,12.35
2022-12-15T03:16:56.728Z,12.95
2022-12-15T03:19:23.521Z,11.45
2022-12-15T03:21:50.101Z,11.38
2022-12-15T03:24:16.685Z,12.13
2022-12-15T03:26:43.840Z,12.30
2022-12-15T03:29:10.711Z,11.68
2022-12-15T03:31:37.382Z,10.90
2022-12-15T03:34:04.003Z,12.50
2022-12-15T03:36:30.569Z,11.73
2022-12-15T03:38:57.153Z,10.23
2022-12-15T03:41:23.713Z,10.48
2022-12-15T03:43:50.454Z,9.25
2022-12-15T03:46:17.390Z,10.55
2022-12-15T03:48:43.994Z,10.13
2022-12-15T03:51:10.692Z,10.25
2022-12-15T03:53:37.430Z,8.50
2022-12-15T03:56:04.178Z,9.70
2022-12-15T03:58:30.769Z,9.55
2022-12-15T04:00:57.465Z,11.25
2022-12-15T04:03:24.300Z,10.02
2022-12-15T04:05:50.956Z,10.63
2022-12-15T04:08:17.578Z,9.93
2022-12-15T04:10:44.150Z,10.43
2022-12-15T04:13:12.352Z,10.82
2022-12-15T04:15:40.124Z,9.38
2022-12-15T04:18:10.107Z,9.43
2022-12-15T04:20:38.112Z,10.00
2022-12-15T04:23:07.848Z,8.50
2022-12-15T04:25:54.756Z,9.00
2022-12-15T04:28:40.109Z,9.15
2022-12-15T04:31:27.095Z,8.60
2022-12-15T04:34:15.239Z,8.75
2022-12-15T04:37:03.540Z,9.57
2022-12-15T04:39:49.002Z,9.10
2022-12-15T04:42:34.693Z,9.68
2022-12-15T04:45:22.964Z,9.27
2022-12-15T04:48:08.388Z,8.50
2022-12-15T04:50:53.696Z,7.78
2022-12-15T04:53:39.706Z,9.20
2022-12-15T04:56:29.524Z,9.00
2022-12-15T04:59:14.837Z,8.35
2022-12-15T05:02:00.488Z,7.43
2022-12-15T05:04:45.993Z,5.80
2022-12-15T05:07:31.674Z,5.85
2022-12-15T05:10:17.145Z,7.75
2022-12-15T05:13:02.378Z,6.88
2022-12-15T05:15:48.419Z,7.40
2022-12-15T05:18:33.519Z,6.65
2022-12-15T05:21:18.333Z,7.28
2022-12-15T05:24:03.453Z,8.35
2022-12-15T05:26:52.726Z,8.15
2022-12-15T05:29:38.857Z,7.47
2022-12-15T05:32:05.637Z,8.50
2022-12-15T05:34:34.818Z,7.97
2022-12-15T05:37:03.083Z,7.63
2022-12-15T05:39:29.925Z,7.20
2022-12-15T05:41:57.427Z,7.35
2022-12-15T05:44:24.862Z,7.03
2022-12-15T05:46:51.759Z,7.63
2022-12-15T05:49:18.943Z,8.77
2022-12-15T05:51:47.301Z,7.45
2022-12-15T05:54:16.777Z,7.07
2022-12-15T05:56:44.073Z,7.07
2022-12-15T05:59:10.960Z,13.02
2022-12-15T06:01:38.153Z,12.38
2022-12-15T06:04:05.676Z,9.93
2022-12-15T06:06:32.597Z,10.10
2022-12-15T06:08:59.313Z,8.88
2022-12-15T06:11:26.317Z,10.02
2022-12-15T06:13:53.602Z,10.27
2022-12-15T06:16:22.099Z,12.60
2022-12-15T06:18:53.001Z,10.02
2022-12-15T06:21:32.103Z,10.30
2022-12-15T06:23:59.129Z,10.20
2022-12-15T06:26:29.155Z,11.70
2022-12-15T06:28:58.363Z,9.95
2022-12-15T06:31:26.112Z,10.77
2022-12-15T06:34:01.020Z,12.20
2022-12-15T06:36:30.833Z,11.70
2022-12-15T06:39:02.785Z,10.55
2022-12-15T06:41:30.649Z,11.55
2022-12-15T06:43:58.184Z,10.70
2022-12-15T06:46:25.811Z,10.85
2022-12-15T06:48:53.293Z,10.90
2022-12-15T06:51:20.281Z,10.10
2022-12-15T06:53:52.618Z,12.35
2022-12-15T06:56:32.721Z,11.13
2022-12-15T06:59:00.233Z,12.20
2022-12-15T07:01:27.211Z,11.25
2022-12-15T07:03:54.782Z,11.27
2022-12-15T07:06:21.872Z,11.93
2022-12-15T07:08:53.942Z,12.05
2022-12-15T07:11:22.205Z,12.32
2022-12-15T07:13:52.997Z,13.15
2022-12-15T07:16:21.757Z,13.68
2022-12-15T07:18:49.557Z,12.05
2022-12-15T07:21:16.601Z,11.38
2022-12-15T07:23:54.899Z,14.18
2022-12-15T07:26:23.688Z,12.13
2022-12-15T07:28:50.338Z,12.57
2022-12-15T07:31:17.993Z,12.82
2022-12-15T07:33:44.851Z,12.18
2022-12-15T07:36:11.785Z,11.70
2022-12-15T07:38:38.431Z,11.70
2022-12-15T07:41:07.516Z,11.18
2022-12-15T07:43:35.429Z,10.88
2022-12-15T07:46:03.064Z,12.80
2022-12-15T07:48:29.947Z,15.18
2022-12-15T07:51:08.404Z,15.02
2022-12-15T07:53:36.888Z,14.52
2022-12-15T07:56:09.061Z,16.40
2022-12-15T07:58:37.293Z,14.88
2022-12-15T08:01:09.064Z,14.05
2022-12-15T08:03:36.943Z,16.63
2022-12-15T08:06:12.052Z,16.88
2022-12-15T08:08:39.885Z,18.98
2022-12-15T08:11:08.555Z,16.65
2022-12-15T08:16:23.401Z,19.30
2022-12-15T08:18:50.076Z,19.85
2022-12-15T08:21:17.082Z,21.13
2022-12-15T08:23:43.725Z,21.25
2022-12-15T08:26:13.849Z,21.13
2022-12-15T08:28:41.630Z,19.88
2022-12-15T08:31:11.634Z,21.10
2022-12-15T08:33:39.488Z,21.52
2022-12-15T08:36:08.773Z,21.25
2022-12-15T08:38:38.705Z,21.95
2022-12-15T08:41:10.863Z,20.55
2022-12-15T08:43:42.538Z,20.65
2022-12-15T08:46:13.061Z,22.70
2022-12-15T08:48:39.999Z,24.50
2022-12-15T08:51:06.828Z,23.77
2022-12-15T08:53:33.520Z,27.45
2022-12-15T08:56:08.830Z,28.35
2022-12-15T08:58:35.885Z,33.38
2022-12-15T09:01:05.325Z,29.95
2022-12-15T09:03:33.785Z,37.63
2022-12-15T09:06:09.030Z,30.42
2022-12-15T09:08:35.975Z,30.23
2022-12-15T09:11:02.729Z,28.25
2022-12-15T09:13:30.013Z,27.73
2022-12-15T09:16:09.842Z,28.02
2022-12-15T09:18:37.793Z,30.50
2022-12-15T09:21:07.164Z,27.70
2022-12-15T09:23:35.656Z,26.55
2022-12-15T09:26:04.759Z,26.80
2022-12-15T09:28:35.037Z,31.35
2022-12-15T09:31:09.231Z,33.42
2022-12-15T09:33:36.849Z,31.63
2022-12-15T09:36:04.301Z,32.03
2022-12-15T09:38:33.062Z,28.88
2022-12-15T09:41:08.549Z,29.90
2022-12-15T09:43:42.894Z,27.98
2022-12-15T09:46:56.981Z,29.90
2022-12-15T09:49:51.499Z,27.55
2022-12-15T09:52:23.000Z,30.67
2022-12-15T09:54:49.653Z,43.70
2022-12-15T09:57:37.576Z,30.38
2022-12-15T10:00:14.390Z,28.17
2022-12-15T10:02:59.142Z,28.55
2022-12-15T10:06:06.912Z,31.98
2022-12-15T10:09:23.266Z,33.45
2022-12-15T10:12:11.018Z,37.67
2022-12-15T10:14:54.632Z,35.25
2022-12-15T10:17:26.229Z,37.92
2022-12-15T10:19:59.682Z,34.78
2022-12-15T10:22:30.823Z,31.27
2022-12-15T10:25:16.397Z,30.90
2022-12-15T10:28:10.389Z,29.67
2022-12-15T10:30:48.304Z,31.35
2022-12-15T10:33:22.852Z,29.10
2022-12-15T10:35:53.139Z,30.65
2022-12-15T10:38:42.562Z,31.60
2022-12-15T10:41:14.364Z,31.27
2022-12-15T10:43:43.309Z,30.83
2022-12-15T10:46:20.468Z,30.20
2022-12-15T10:48:49.181Z,32.72
2022-12-15T10:51:28.796Z,28.67
2022-12-15T10:54:09.946Z,30.73
2022-12-15T10:56:57.753Z,31.48
2022-12-15T10:59:33.585Z,28.05
2022-12-15T11:02:23.465Z,29.10
2022-12-15T11:05:15.597Z,31.73
2022-12-15T11:07:48.516Z,30.52
2022-12-15T11:10:26.726Z,29.55
2022-12-15T11:13:08.494Z,30.05
2022-12-15T11:15:40.180Z,30.52
2022-12-15T11:18:22.765Z,27.73
2022-12-15T11:21:22.064Z,27.73
2022-12-15T11:24:10.299Z,23.48
2022-12-15T11:26:53.047Z,27.42
2022-12-15T11:29:28.435Z,25.67
2022-12-15T11:31:57.961Z,24.02
2022-12-15T11:34:37.089Z,25.05
2022-12-15T11:37:36.690Z,23.63
2022-12-15T11:40:35.018Z,26.38
2022-12-15T11:43:20.097Z,28.15
2022-12-15T11:46:07.047Z,29.88
2022-12-15T11:48:33.613Z,28.02
2022-12-15T11:51:06.307Z,24.23
2022-12-15T11:54:09.631Z,26.75
2022-12-15T11:57:13.772Z,28.80
2022-12-15T11:59:55.239Z,27.45
2022-12-15T12:02:30.931Z,23.88
2022-12-15T12:05:22.596Z,21.58
2022-12-15T12:07:58.256Z,24.85
2022-12-15T12:10:33.995Z,27.25
2022-12-15T12:13:25.161Z,30.08
2022-12-15T12:16:01.084Z,26.63
2022-12-15T12:18:36.731Z,25.02
2022-12-15T12:21:14.266Z,26.90
2022-12-15T12:23:59.938Z,25.42
2022-12-15T12:26:31.248Z,26.67
2022-12-15T12:29:11.663Z,28.90
2022-12-15T12:31:51.681Z,30.63
2022-12-15T12:35:30.624Z,30.45
2022-12-15T12:41:05.035Z,24.65
2022-12-15T12:43:38.502Z,27.95
2022-12-15T12:46:21.999Z,23.92
2022-12-15T12:48:58.638Z,26.67
2022-12-15T12:51:40.202Z,24.60
2022-12-15T12:54:31.279Z,24.48
2022-12-15T12:56:57.963Z,20.88
2022-12-15T12:59:31.563Z,23.10
2022-12-15T13:02:21.534Z,22.55
2022-12-15T13:05:06.562Z,23.45
2022-12-15T13:07:34.920Z,21.33
2022-12-15T13:10:19.342Z,21.52
2022-12-15T13:12:52.934Z,26.75
2022-12-15T13:15:29.376Z,22.02
2022-12-15T13:18:18.026Z,24.42
2022-12-15T13:20:50.581Z,22.65
2022-12-15T13:23:40.143Z,19.63
2022-12-15T13:26:06.689Z,20.40
2022-12-15T13:28:36.230Z,22.00
2022-12-15T13:31:18.838Z,21.10
2022-12-15T13:33:52.670Z,19.88
2022-12-15T13:36:37.736Z,22.73
2022-12-15T13:39:13.293Z,22.70
2022-12-15T13:42:23.815Z,25.70
2022-12-15T13:44:44.205Z,23.63
2022-12-15T13:47:25.868Z,24.98
2022-12-15T13:50:01.277Z,22.48
2022-12-15T13:55:52.650Z,23.38
2022-12-15T13:58:21.650Z,23.02
2022-12-15T14:00:53.784Z,24.35
2022-12-15T14:03:21.192Z,23.83
2022-12-15T14:05:56.277Z,24.30
2022-12-15T14:08:25.156Z,22.73
2022-12-15T14:10:54.522Z,24.70
2022-12-15T14:13:37.659Z,26.45
2022-12-15T14:18:36.871Z,24.58
2022-12-15T14:21:20.121Z,24.70
2022-12-15T14:24:11.458Z,23.38
2022-12-15T14:26:33.337Z,25.77
2022-12-15T14:29:05.715Z,29.23
2022-12-15T14:31:33.083Z,28.88
2022-12-15T14:34:08.952Z,28.23
2022-12-15T14:36:36.683Z,26.25
2022-12-15T14:39:06.457Z,33.20
2022-12-15T14:41:39.049Z,28.25
2022-12-15T14:44:38.175Z,31.00
2022-12-15T14:47:27.070Z,30.35
2022-12-15T14:49:55.487Z,32.65
2022-12-15T14:52:41.405Z,33.55
2022-12-15T14:55:17.055Z,32.30
2022-12-15T14:57:45.904Z,32.50
2022-12-15T15:00:35.136Z,33.08
2022-12-15T15:03:05.714Z,21.85
2022-12-15T15:03:07.202Z,27.17
2022-12-15T15:03:20.096Z,33.72
2022-12-15T15:05:51.580Z,34.50
2022-12-15T15:08:29.324Z,33.22
2022-12-15T15:11:01.783Z,33.42
2022-12-15T15:13:40.977Z,32.97
2022-12-15T15:16:15.336Z,36.25
2022-12-15T15:18:43.442Z,34.45
2022-12-15T15:21:21.841Z,32.55
2022-12-15T15:24:02.125Z,34.05
2022-12-15T15:26:29.654Z,34.17
2022-12-15T15:28:56.928Z,33.30
2022-12-15T15:31:32.657Z,33.40
2022-12-15T15:34:04.368Z,34.45
2022-12-15T15:36:34.136Z,32.85
2022-12-15T15:39:02.793Z,36.42
2022-12-15T15:41:31.926Z,36.85
2022-12-15T15:44:00.936Z,33.50
2022-12-15T15:46:33.104Z,33.25
2022-12-15T15:49:03.233Z,33.25
2022-12-15T15:51:32.242Z,34.30
2022-12-15T15:54:04.669Z,32.35
2022-12-15T15:56:31.698Z,33.97
2022-12-15T15:59:02.538Z,29.25
2022-12-15T16:01:29.230Z,30.13
2022-12-15T16:03:56.026Z,33.35
2022-12-15T16:06:24.282Z,32.58
2022-12-15T16:08:53.824Z,33.30
2022-12-15T16:11:24.712Z,29.98
2022-12-15T16:13:51.348Z,27.30
2022-12-15T16:16:24.064Z,30.85
2022-12-15T16:18:51.066Z,29.90
2022-12-15T16:21:26.007Z,31.50
2022-12-15T16:23:53.937Z,33.85
2022-12-15T16:26:32.307Z,34.10
2022-12-15T16:28:59.016Z,28.48
2022-12-15T16:31:42.024Z,31.42
2022-12-15T16:34:08.857Z,26.48
2022-12-15T16:36:35.508Z,31.85
2022-12-15T16:39:02.378Z,29.67
2022-12-15T16:41:28.992Z,27.08
2022-12-15T16:43:55.577Z,29.20
2022-12-15T16:46:22.190Z,26.10
2022-12-15T16:48:48.884Z,29.77
2022-12-15T16:51:37.006Z,31.63
2022-12-15T16:54:04.023Z,29.98
2022-12-15T16:56:30.659Z,28.92
2022-12-15T16:59:30.898Z,28.30
2022-12-15T17:01:44.487Z,28.08
2022-12-15T17:04:11.691Z,27.73
2022-12-15T17:06:39.230Z,30.73
2022-12-15T17:09:08.853Z,27.55
2022-12-15T17:11:35.782Z,27.98
2022-12-15T17:14:02.429Z,30.70
2022-12-15T17:16:29.502Z,32.13
2022-12-15T17:18:56.196Z,32.83
2022-12-15T17:21:28.746Z,32.15
2022-12-15T17:23:59.017Z,31.65
2022-12-15T17:26:30.100Z,32.92
2022-12-15T17:29:01.239Z,32.78
2022-12-15T17:31:34.847Z,32.72
2022-12-15T17:34:14.994Z,32.10
2022-12-15T17:36:41.569Z,33.83
2022-12-15T17:39:11.317Z,34.15
2022-12-15T17:44:33.783Z,32.45
2022-12-15T17:47:02.613Z,30.83
2022-12-15T17:49:34.935Z,31.88
2022-12-15T17:52:05.088Z,32.00
2022-12-15T17:54:31.924Z,31.58
2022-12-15T17:56:58.725Z,33.45
2022-12-15T17:59:25.344Z,34.08
2022-12-15T18:01:52.307Z,33.28
2022-12-15T18:04:19.132Z,34.17
2022-12-15T18:06:45.858Z,30.02
2022-12-15T18:09:17.473Z,30.73
2022-12-15T18:11:46.882Z,33.75
2022-12-15T18:14:15.695Z,32.35
2022-12-15T18:16:42.759Z,28.77
2022-12-15T18:19:09.465Z,30.17
2022-12-15T18:21:36.594Z,32.70
2022-12-15T18:24:03.750Z,31.63
2022-12-15T18:26:37.742Z,33.38
2022-12-15T18:29:13.197Z,31.33
2022-12-15T18:31:40.831Z,32.80
2022-12-15T18:34:15.939Z,33.42
2022-12-15T18:36:43.038Z,29.75
2022-12-15T18:39:18.789Z,38.97
2022-12-15T18:41:45.966Z,31.38
2022-12-15T18:44:22.215Z,31.15
2022-12-15T18:46:48.858Z,29.85
2022-12-15T18:49:18.157Z,28.55
2022-12-15T18:51:46.459Z,34.22
2022-12-15T18:54:24.279Z,31.42
2022-12-15T18:56:51.649Z,29.85
2022-12-15T18:59:19.556Z,29.85
2022-12-15T19:01:48.170Z,32.88
2022-12-15T19:04:15.437Z,31.45
2022-12-15T19:06:42.995Z,28.70
2022-12-15T19:09:23.237Z,28.77
2022-12-15T19:12:09.442Z,32.17
2022-12-15T19:14:41.629Z,28.75
2022-12-15T19:17:37.886Z,27.70
2022-12-15T19:20:34.021Z,30.20
2022-12-15T19:23:01.149Z,27.58
2022-12-15T19:25:29.753Z,29.40
2022-12-15T19:28:00.963Z,29.90
2022-12-15T19:30:30.516Z,28.40
2022-12-15T19:32:57.571Z,26.67
2022-12-15T19:35:24.916Z,26.88
2022-12-15T19:37:55.263Z,28.63
2022-12-15T19:40:31.067Z,28.10
2022-12-15T19:42:59.013Z,31.98
2022-12-15T19:45:28.727Z,26.77
2022-12-15T19:47:55.933Z,28.23
2022-12-15T19:50:31.006Z,27.67
2022-12-15T19:53:03.381Z,31.80
2022-12-15T19:55:33.457Z,30.13
2022-12-15T19:58:01.412Z,28.52
2022-12-15T20:00:28.080Z,27.23
2022-12-15T20:02:55.828Z,27.70
2022-12-15T20:05:24.706Z,29.80
2022-12-15T20:07:53.678Z,25.50
2022-12-15T20:10:29.429Z,29.17
2022-12-15T20:12:58.597Z,26.15
2022-12-15T20:15:28.415Z,29.73
2022-12-15T20:17:57.042Z,29.30
2022-12-15T20:20:26.191Z,28.00
2022-12-15T20:22:55.972Z,27.98
2022-12-15T20:25:30.156Z,28.30
2022-12-15T20:28:00.346Z,25.98
2022-12-15T20:30:35.359Z,25.63
2022-12-15T20:33:05.510Z,26.08
2022-12-15T20:35:35.540Z,28.30
2022-12-15T20:38:24.750Z,28.00
2022-12-15T20:40:52.107Z,27.83
2022-12-15T20:43:20.581Z,25.33
2022-12-15T20:45:53.300Z,26.42
2022-12-15T20:48:24.756Z,25.63
2022-12-15T20:50:51.359Z,27.90
2022-12-15T20:53:24.469Z,30.23
2022-12-15T20:58:19.563Z,26.23
2022-12-15T21:00:47.239Z,27.52
2022-12-15T21:03:29.343Z,25.25
2022-12-15T21:05:58.044Z,24.73
2022-12-15T21:08:30.250Z,27.20
2022-12-15T21:11:01.444Z,29.17
2022-12-15T21:13:31.531Z,33.08
2022-12-15T21:15:58.775Z,31.15
2022-12-15T21:19:17.997Z,28.17
2022-12-15T21:21:27.197Z,27.13
2022-12-15T21:23:54.849Z,26.02
2022-12-15T21:26:23.431Z,26.52
2022-12-15T21:28:54.418Z,29.65
2022-12-15T21:31:21.561Z,29.55
2022-12-15T21:33:48.265Z,28.08
2022-12-15T21:36:16.877Z,29.35
2022-12-15T21:38:46.119Z,29.05
2022-12-15T21:41:16.698Z,29.70
2022-12-15T21:43:43.470Z,28.08
2022-12-15T21:46:27.527Z,30.40
2022-12-15T21:49:15.695Z,31.48
2022-12-15T21:51:45.113Z,28.80
2022-12-15T21:54:38.021Z,27.77
2022-12-15T21:57:06.653Z,30.08
2022-12-15T21:59:33.398Z,27.00
2022-12-15T22:02:01.362Z,30.00
2022-12-15T22:04:35.322Z,25.45
2022-12-15T22:07:02.401Z,26.42
2022-12-15T22:09:29.027Z,28.13
2022-12-15T22:11:56.693Z,28.38
2022-12-15T22:14:27.763Z,29.17
2022-12-15T22:16:56.329Z,30.90
2022-12-15T22:19:23.604Z,28.77
2022-12-15T22:21:50.610Z,27.45
2022-12-15T22:24:19.180Z,28.83
2022-12-15T22:26:47.205Z,28.80
2022-12-15T22:29:19.630Z,27.67
2022-12-15T22:31:47.074Z,28.48
2022-12-15T22:34:19.733Z,28.95
2022-12-15T22:36:46.359Z,28.15
2022-12-15T22:39:14.872Z,26.10
2022-12-15T22:41:47.566Z,28.70
2022-12-15T22:44:35.969Z,27.90
2022-12-15T22:47:04.152Z,25.52
2022-12-15T22:49:36.493Z,28.23
2022-12-15T22:52:13.813Z,27.90
2022-12-15T22:54:44.087Z,29.05
2022-12-15T22:57:26.094Z,28.05
2022-12-15T23:00:00.875Z,27.08
2022-12-15T23:02:31.312Z,27.30
2022-12-15T23:04:58.077Z,26.90
2022-12-15T23:07:25.424Z,27.17
2022-12-15T23:10:12.006Z,29.05
2022-12-15T23:12:38.629Z,29.25
2022-12-15T23:15:24.135Z,27.75
2022-12-15T23:17:50.751Z,27.42
2022-12-15T23:20:18.622Z,29.02
2022-12-15T23:22:45.203Z,29.23
2022-12-15T23:25:11.806Z,30.55
2022-12-15T23:27:38.420Z,30.08
2022-12-15T23:30:05.482Z,30.02
2022-12-15T23:32:32.068Z,28.33
2022-12-15T23:34:58.665Z,29.85
2022-12-15T23:37:25.276Z,30.20
2022-12-15T23:39:51.869Z,30.10
2022-12-15T23:42:18.430Z,29.73
2022-12-15T23:44:45.043Z,32.92
2022-12-15T23:47:11.713Z,30.33
2022-12-15T23:49:38.421Z,30.20
2022-12-15T23:52:05.221Z,30.75
2022-12-15T23:54:31.841Z,29.80
2022-12-15T23:56:58.565Z,30.00
2022-12-15T23:59:25.190Z,27.52
